UKDR/KWG METAR and TAF weather

Enter ICAO airport designator
Station Type Date Time Source
UKDR METAR 2020/11/28 18:00 UTC NOAA

UKDR 281800Z 00000MPS 0700 0600S R18/P2000N FG VV003 05/05 Q1017 R18/19//60 BECMG 0300 FG VV002


Station Type Date Time Source
UKDR Decoded METAR 2020/11/28 18:00 UTC NOAA

Krivyy Rih / Dnipropetrovs'k, Ukraine (UKDR) 48-03N 033-13-12E
Nov 28, 2020 - 01:00 PM EST / 2020.11.28 1800 UTC
Wind: Calm:0
Visibility: less than 1 mile:0
Sky conditions: obscured
Weather: fog
Temperature: 41 F (5 C)
Dew Point: 41 F (5 C)
Relative Humidity: 100%
Pressure (altimeter): 30.03 in. Hg (1017 hPa)
ob: UKDR 281800Z 00000MPS 0700 0600S R18/P2000N FG VV003 05/05 Q1017 R18/19//60 BECMG 0300 FG VV002
cycle: 18

Station Type Date Time Source
UKDR TAF 2020/11/28 18:00 UTC NOAA

TAF UKDR 281706Z 2818/2918 VRB01MPS 0300 FG VV002 TX06/2912Z TN01/2906Z
TEMPO 2818/2902 1200 -SHRA BR BKN004 SCT015CB
BECMG 2908/2910 20003MPS 2200 BR BKN007 SCT015CB

Example: see airport list